M I D A S
Marine Information and Data Acquisition System
Tripno 2228 of the Zeeleeuw from 2011-10-10 06:46:27 to 2011-10-10 09:52:16
Back to CruiseResearch ActivitiesStationsMapUnderway DataData graphs

EquipmentUnitsComment
TimeDGPSUTC
LatitudeDGPSDM.mWGS84
LongitudeDGPSDM.mWGS84
TemperatureSBE03/SBE38deg celciusITS90
ConductivitySBE21S/mITS90
SalinitySBE21 Practical Salinity Units
ChlorophylAChelsea fluorimeterg/lCalibrated in Aceton
Missing or incorrect values are displayed as -999
Sea surface data collected by the RV Zeeleeuw from 2011-10-10 06:42:49 to 2011-10-10 10:20:33
Time Latitude Longitude Temperature Conductivity Salinity ChlorophylA
2011-10-10 06:43:58 51°13.655 2°55.937 20.8376 0.012484 0.061525 -3.020363
2011-10-10 06:44:57 51°13.665 2°55.888 17.0638 2.967077 20.648144 -3.020363
2011-10-10 06:45:58 51°13.679 2°55.804 16.6132 2.73003 20.029845 -3.020363
2011-10-10 06:46:57 51°13.687 2°55.746 16.4731 2.586172 19.107149 -3.020363
2011-10-10 06:47:57 51°13.686 2°55.75 15.8846 2.508886 18.608121 -3.020363
2011-10-10 06:48:58 51°13.751 2°55.699 15.8734 2.448141 18.253489 -3.020363
2011-10-10 06:49:56 51°13.87 2°55.604 15.7749 2.416841 18.037383 -3.020363
2011-10-10 06:50:54 51°14.006 2°55.512 15.7145 2.395976 17.90943 -3.020363
2011-10-10 06:51:54 51°14.153 2°55.407 15.6883 2.380896 17.806497 -3.020363
2011-10-10 06:52:56 51°14.301 2°55.28 15.6807 2.371703 17.757883 -3.020363
2011-10-10 06:53:58 51°14.453 2°55.138 15.6848 2.363854 17.697915 -3.020363
2011-10-10 06:54:55 51°14.603 2°54.981 15.672 2.354248 17.609405 -3.020363
2011-10-10 06:55:57 51°14.755 2°54.809 15.5078 2.32946 17.444275 -3.020363
2011-10-10 06:56:57 51°14.774 2°54.559 15.5383 2.331837 17.514726 -3.020363
2011-10-10 06:57:55 51°14.653 2°54.37 15.5715 3.896662 30.798019 -3.020363
2011-10-10 06:58:54 51°14.521 2°54.179 15.5397 3.98163 31.531162 -3.020363
2011-10-10 06:59:54 51°14.396 2°53.962 15.4711 4.073766 32.396859 -3.020363
2011-10-10 07:00:55 51°14.268 2°53.735 15.4081 4.214128 33.696785 -3.020363
2011-10-10 07:01:54 51°14.146 2°53.51 15.3847 4.218587 33.788112 -3.020363
2011-10-10 07:02:54 51°14.03 2°53.275 15.3446 4.211537 33.753958 -3.020363
2011-10-10 07:03:54 51°13.917 2°53.042 15.3199 4.193705 33.621053 -3.020363
2011-10-10 07:04:54 51°13.808 2°52.807 15.2986 4.190595 33.616438 -3.020363
2011-10-10 07:05:54 51°13.706 2°52.557 15.2694 4.191114 33.636598 -3.020363
2011-10-10 07:06:56 51°13.601 2°52.305 15.2709 4.195572 33.695659 -3.020363
2011-10-10 07:07:54 51°13.502 2°52.059 15.2609 4.200134 33.746513 -3.020363
2011-10-10 07:08:54 51°13.405 2°51.797 15.2439 4.201897 33.765882 -3.020363
2011-10-10 07:09:54 51°13.302 2°51.543 15.3096 4.207703 33.818019 -3.020363
2011-10-10 07:10:54 51°13.202 2°51.283 15.416 4.226571 33.916326 -3.020363
2011-10-10 07:11:54 51°13.101 2°51.028 15.4796 4.2415 33.977662 -3.020363
2011-10-10 07:12:54 51°12.999 2°50.774 15.5264 4.248446 33.99086 -3.020363
2011-10-10 07:13:54 51°12.894 2°50.52 15.5907 4.253941 33.997453 -3.020363
2011-10-10 07:14:54 51°12.794 2°50.263 15.6752 4.263168 34.016841 -3.020363
2011-10-10 07:15:54 51°12.691 2°50.008 15.671 4.269907 34.018981 -3.020363
2011-10-10 07:16:54 51°12.587 2°49.749 15.6425 4.259331 33.941695 -3.020363
2011-10-10 07:17:54 51°12.488 2°49.486 15.624 4.254873 33.920995 -3.020363
2011-10-10 07:18:54 51°12.393 2°49.218 15.6441 4.250311 33.876822 -3.020363
2011-10-10 07:19:54 51°12.305 2°48.941 15.6376 4.245437 33.826383 -3.020363
2011-10-10 07:20:54 51°12.219 2°48.663 15.5726 4.243156 33.818711 -3.020363
2011-10-10 07:21:54 51°12.135 2°48.389 15.5474 4.232996 33.782961 -3.020363
2011-10-10 07:22:54 51°12.053 2°48.117 15.5372 4.265243 34.082827 -3.020363
2011-10-10 07:23:54 51°11.97 2°47.84 15.5423 4.271464 34.113551 -3.020363
2011-10-10 07:24:54 51°11.891 2°47.556 15.522 4.266384 34.105803 -3.020363
2011-10-10 07:25:54 51°11.804 2°47.285 15.5454 4.26234 34.073922 -3.020363
2011-10-10 07:26:54 51°11.719 2°47.017 15.5163 4.261407 34.068421 -3.020363
2011-10-10 07:27:54 51°11.639 2°46.743 15.5339 4.26151 34.068638 -3.020363
2011-10-10 07:28:54 51°11.557 2°46.465 15.5714 4.262547 34.075776 -3.020363
2011-10-10 07:29:54 51°11.476 2°46.192 15.6081 4.266072 34.080302 -3.020363
2011-10-10 07:30:54 51°11.409 2°45.911 15.6363 4.270012 34.092785 -3.020363
2011-10-10 07:31:54 51°11.341 2°45.626 15.6138 4.272604 34.103867 -3.020363
2011-10-10 07:32:54 51°11.268 2°45.349 15.6416 4.274574 34.105139 -3.020363
2011-10-10 07:33:54 51°11.194 2°45.072 15.6524 4.276959 34.117199 -3.020363
2011-10-10 07:34:54 51°11.135 2°44.785 15.6605 4.278307 34.120007 -3.020363
2011-10-10 07:35:54 51°11.103 2°44.496 15.6684 4.280069 34.12793 -3.020363
2011-10-10 07:36:54 51°11.07 2°44.202 15.6577 4.281832 34.145065 -3.020363
2011-10-10 07:37:54 51°11.029 2°43.914 15.67 4.284736 34.168828 -3.020363
2011-10-10 07:38:54 51°11.004 2°43.619 15.6812 4.287017 34.181364 -3.020363
2011-10-10 07:39:54 51°11.007 2°43.321 15.6875 4.288779 34.192823 -3.020363
2011-10-10 07:40:54 51°11.003 2°43.029 15.6984 4.290231 34.198669 -3.020363
2011-10-10 07:41:54 51°11.011 2°42.741 15.7053 4.291683 34.200964 -3.020363
2011-10-10 07:42:54 51°11.015 2°42.528 15.7152 4.282454 34.110949 -3.020363
2011-10-10 07:43:54 51°11.021 2°42.342 15.7293 4.294171 34.206824 -3.020363
2011-10-10 07:44:54 51°11.026 2°42.223 15.7435 4.295623 34.211246 -3.020363
2011-10-10 07:45:54 51°11.034 2°42.173 15.7509 4.297178 34.214464 -3.020363
2011-10-10 07:46:55 51°11.049 2°42.144 15.7622 4.298215 34.216608 -3.020363
2011-10-10 07:47:56 51°11.064 2°42.153 15.7745 4.299563 34.220813 -3.020363
2011-10-10 07:48:54 51°11.068 2°42.174 15.7856 4.300807 34.219134 -3.020363
2011-10-10 07:49:54 51°11.069 2°42.199 15.7971 4.302051 34.222415 -3.020363
2011-10-10 07:50:54 51°11.069 2°42.224 15.8015 4.303088 34.223142 -3.020363
2011-10-10 07:51:54 51°11.068 2°42.248 15.8068 4.30371 34.223721 -3.020363
2011-10-10 07:52:54 51°11.068 2°42.276 15.8114 4.304228 34.224792 -3.020363
2011-10-10 07:53:54 51°11.07 2°42.301 15.8124 4.304436 34.225929 -3.020363
2011-10-10 07:54:54 51°11.07 2°42.326 15.8125 4.280586 34.013933 -3.020363
2011-10-10 07:55:54 51°11.069 2°42.352 15.8049 4.27986 34.006078 -3.020363
2011-10-10 07:56:54 51°11.068 2°42.376 15.7975 4.27903 33.998708 -3.020363
2011-10-10 07:57:54 51°11.068 2°42.402 15.7903 4.277786 33.990466 -3.020363
2011-10-10 07:58:54 51°11.068 2°42.429 15.7942 4.277786 33.993981 -3.020363
2011-10-10 07:59:54 51°11.068 2°42.455 15.7885 4.276957 33.985908 -3.020363
2011-10-10 08:00:54 51°11.068 2°42.478 15.7918 4.276438 33.98341 -3.020363
2011-10-10 08:01:54 51°11.068 2°42.502 15.7914 4.277268 33.990077 -3.020363
2011-10-10 08:02:54 51°11.074 2°42.526 15.7911 4.276024 33.979022 -3.020363
2011-10-10 08:03:55 51°11.123 2°42.611 15.8074 4.303295 34.218616 -3.020363
2011-10-10 08:04:54 51°11.096 2°42.819 15.7882 4.305058 34.220846 -3.020363
2011-10-10 08:05:54 51°11.118 2°43.126 15.7958 4.302155 34.221921 -3.020363
2011-10-10 08:06:54 51°11.164 2°43.434 15.9464 4.307442 34.217999 -3.020363
2011-10-10 08:07:54 51°11.206 2°43.745 15.9538 4.321855 34.242143 -3.020363
2011-10-10 08:08:54 51°11.245 2°44.063 15.9256 4.32227 34.25005 -3.020363
2011-10-10 08:09:54 51°11.284 2°44.374 15.7352 4.312731 34.259331 -3.020363
2011-10-10 08:10:54 51°11.326 2°44.685 15.7358 4.300911 34.241322 -3.020363
2011-10-10 08:11:54 51°11.367 2°44.997 15.8258 4.302155 34.23113 -3.020363
2011-10-10 08:12:54 51°11.412 2°45.308 15.7937 4.308272 34.231027 -3.020363
2011-10-10 08:13:54 51°11.484 2°45.604 15.7467 4.305991 34.239762 -3.020363
2011-10-10 08:14:54 51°11.565 2°45.902 15.6974 4.30174 34.247999 -3.020363
2011-10-10 08:15:54 51°11.638 2°46.199 15.6574 4.293445 34.215965 -3.020363
2011-10-10 08:16:54 51°11.717 2°46.496 15.6479 4.286395 34.178655 -3.020363
2011-10-10 08:17:54 51°11.79 2°46.793 15.6052 4.284321 34.170096 -3.020363
2011-10-10 08:18:54 51°11.878 2°47.079 15.5053 4.273434 34.124044 -3.020363
2011-10-10 08:19:54 51°11.96 2°47.371 15.6439 4.259644 34.074682 -3.020363
2011-10-10 08:20:54 51°12.028 2°47.677 15.8357 4.290853 34.165224 -3.020363
2011-10-10 08:21:54 51°12.094 2°47.994 15.8223 4.308168 34.218794 -3.020363
2011-10-10 08:22:54 51°12.178 2°48.288 15.6446 4.302362 34.226599 -3.020363
2011-10-10 08:23:54 51°12.288 2°48.57 15.5872 4.278514 34.147391 -3.020363
2011-10-10 08:24:54 51°12.383 2°48.857 15.6242 4.275093 34.124659 -3.020363
2011-10-10 08:25:54 51°12.475 2°49.144 15.7375 4.284632 34.165775 -3.020363
2011-10-10 08:26:55 51°12.57 2°49.44 15.7802 4.298318 34.21824 -3.020363
2011-10-10 08:27:54 51°12.672 2°49.722 15.768 4.30091 34.195991 -3.020363
2011-10-10 08:28:54 51°12.757 2°49.996 15.7334 4.296037 34.212813 -3.020363
2011-10-10 08:29:54 51°12.84 2°50.247 15.7323 4.299874 34.216496 -3.020363
2011-10-10 08:30:54 51°12.929 2°50.505 15.7137 4.298733 34.226187 -3.020363
2011-10-10 08:31:54 51°13.027 2°50.774 15.7859 4.295623 34.21692 -3.020363
2011-10-10 08:32:54 51°13.132 2°51.046 15.5406 4.297074 34.226305 -3.020363
2011-10-10 08:33:54 51°13.238 2°51.324 15.7166 4.274057 34.163718 -3.020363
2011-10-10 08:34:54 51°13.34 2°51.602 15.78 4.297178 34.201 -3.020363
2011-10-10 08:35:55 51°13.441 2°51.888 15.5281 4.303295 34.225695 -3.020363
2011-10-10 08:36:54 51°13.544 2°52.162 15.2688 4.257987 34.129615 -3.020363
2011-10-10 08:37:55 51°13.659 2°52.44 15.3266 4.214027 33.854917 -3.020363
2011-10-10 08:38:54 51°13.76 2°52.719 15.6617 4.251972 34.029492 -3.020363
2011-10-10 08:39:54 51°13.857 2°53.012 15.5538 4.287846 34.183794 -3.020363
2011-10-10 08:40:54 51°13.986 2°53.265 15.2989 4.246373 34.015615 -3.020363
2011-10-10 08:41:54 51°14.121 2°53.512 15.3206 4.208842 33.783566 -3.020363
2011-10-10 08:42:54 51°14.251 2°53.767 15.4213 4.223668 33.889581 -3.020363
2011-10-10 08:43:54 51°14.411 2°53.962 15.5253 4.254357 34.05865 -3.020363
2011-10-10 08:44:54 51°14.599 2°54.075 15.5471 4.267732 34.122829 -3.020363
2011-10-10 08:45:54 51°14.791 2°54.174 15.5565 4.271361 34.139623 -3.020363
2011-10-10 08:46:54 51°14.985 2°54.264 15.5905 4.26628 34.084283 -3.020363
2011-10-10 08:47:55 51°15.179 2°54.362 15.6233 4.268353 34.070888 -3.020363
2011-10-10 08:48:54 51°15.367 2°54.453 15.6482 4.271256 34.07554 -3.020363
2011-10-10 08:49:54 51°15.562 2°54.502 15.7202 4.273433 34.065231 -3.020363
2011-10-10 08:50:54 51°15.751 2°54.483 15.8158 4.282557 34.080073 -3.020363
2011-10-10 08:51:54 51°15.93 2°54.401 15.8374 4.291473 34.095881 -3.020363
2011-10-10 08:52:54 51°16.104 2°54.33 15.8389 4.295725 34.113913 -3.020363
2011-10-10 08:53:54 51°16.222 2°54.291 15.9764 4.297487 34.105617 -3.020363
2011-10-10 08:54:54 51°16.273 2°54.299 16.0206 4.307337 34.090362 -3.020363
2011-10-10 08:55:54 51°16.293 2°54.339 16.0624 4.310966 34.085338 -3.020363
2011-10-10 08:56:54 51°16.305 2°54.39 16.0414 4.314284 34.095775 -3.020363
2011-10-10 08:57:54 51°16.314 2°54.446 16.0413 4.312728 34.092524 -3.020363
2011-10-10 08:58:54 51°16.323 2°54.498 16.0412 4.312936 34.094358 -3.020363
2011-10-10 08:59:54 51°16.333 2°54.548 16.0395 4.313039 34.094574 -3.020363
2011-10-10 09:00:54 51°16.344 2°54.601 16.0381 4.312832 34.093441 -3.020363
2011-10-10 09:01:54 51°16.356 2°54.655 16.0382 4.312314 34.088857 -3.020363
2011-10-10 09:02:54 51°16.366 2°54.712 16.0289 4.31221 34.092841 -3.020363
2011-10-10 09:03:54 51°16.375 2°54.766 16.0197 4.311588 34.092941 -3.020363
2011-10-10 09:04:54 51°16.384 2°54.822 16.013 4.310966 34.095143 -3.020363
2011-10-10 09:05:54 51°16.392 2°54.883 16.0117 4.28639 33.883437 -3.020363
2011-10-10 09:06:54 51°16.4 2°54.939 16.0169 4.285353 33.873577 -3.020363
2011-10-10 09:07:54 51°16.409 2°54.998 16.0212 4.286286 33.876256 -3.020363
2011-10-10 09:08:54 51°16.419 2°55.057 16.0131 4.285975 33.875595 -3.020363
2011-10-10 09:09:54 51°16.429 2°55.116 16.0042 4.284938 33.871999 -3.020363
2011-10-10 09:10:54 51°16.438 2°55.176 15.992 4.284212 33.871849 -3.020363
2011-10-10 09:11:54 51°16.446 2°55.235 15.973 4.280791 33.85761 -3.020363
2011-10-10 09:12:54 51°16.453 2°55.293 15.9246 4.27965 33.862845 -3.020363
2011-10-10 09:13:54 51°16.462 2°55.35 15.9108 4.275296 33.863346 -3.020363
2011-10-10 09:14:54 51°16.471 2°55.414 15.8921 4.274363 33.865549 -3.020363
2011-10-10 09:15:54 51°16.481 2°55.473 15.875 4.271978 33.859082 -3.020363
2011-10-10 09:16:54 51°16.494 2°55.532 15.8683 4.174104 33.00714 -3.020363
2011-10-10 09:17:54 51°16.505 2°55.593 15.8611 4.172653 32.997726 -3.020363
2011-10-10 09:18:54 51°16.534 2°55.635 15.8677 4.170994 32.985801 -3.020363
2011-10-10 09:19:55 51°16.556 2°55.58 15.9366 4.167158 32.946495 -3.020363
2011-10-10 09:20:55 51°16.511 2°55.471 15.9509 4.172444 32.931388 -3.020363
2011-10-10 09:21:54 51°16.465 2°55.291 15.9957 4.170578 32.902758 -3.020363
2011-10-10 09:22:54 51°16.421 2°55.102 16.0224 4.171614 32.881462 -3.020363
2011-10-10 09:23:54 51°16.374 2°54.91 16.0438 4.172547 32.861322 -3.020363
2011-10-10 09:24:54 51°16.337 2°54.716 16.0518 4.172443 32.84895 -3.020363
2011-10-10 09:25:55 51°16.289 2°54.519 16.0528 4.173065 32.847006 -3.020363
2011-10-10 09:26:55 51°16.249 2°54.34 16.0316 4.174516 32.863132 -3.020363
2011-10-10 09:27:54 51°16.244 2°54.297 16.0181 4.16529 32.798865 -3.020363
2011-10-10 09:28:54 51°16.264 2°54.332 16.0119 4.16104 32.772263 -3.020363
2011-10-10 09:29:54 51°16.285 2°54.398 16.0177 4.158241 32.750343 -3.020363
2011-10-10 09:30:54 51°16.301 2°54.467 16.0189 4.147667 32.65404 -3.020363
2011-10-10 09:31:54 51°16.315 2°54.538 16.0251 4.1486 32.659557 -3.020363
2011-10-10 09:32:54 51°16.331 2°54.608 16.0253 4.156997 32.730669 -3.020363
2011-10-10 09:33:54 51°16.347 2°54.679 16.0258 4.138545 32.569208 -3.020363
2011-10-10 09:34:54 51°16.363 2°54.753 16.0289 4.14238 32.6029 -3.020363
2011-10-10 09:35:54 51°16.385 2°54.825 16.0387 4.138337 32.564045 -3.020363
2011-10-10 09:36:54 51°16.433 2°54.834 16.045 4.140099 32.570165 -3.020363
2011-10-10 09:37:54 51°16.432 2°54.769 16.0552 4.137922 32.545043 -3.020363
2011-10-10 09:38:54 51°16.393 2°54.703 16.0435 4.14352 32.586166 -3.020363
2011-10-10 09:39:54 51°16.355 2°54.639 16.0219 4.144453 32.60706 -3.020363
2011-10-10 09:40:54 51°16.305 2°54.563 15.9993 4.136057 32.550697 -3.020363
2011-10-10 09:41:54 51°16.262 2°54.445 15.9983 4.122685 32.446594 -3.020363
2011-10-10 09:42:54 51°16.214 2°54.317 15.9923 4.127349 32.488232 -3.020363
2011-10-10 09:43:54 51°16.237 2°54.248 16.0072 4.123203 32.455811 -3.020363
2011-10-10 09:44:54 51°16.268 2°54.284 16.0316 4.127971 32.484357 -3.020363
2011-10-10 09:45:54 51°16.293 2°54.353 16.0405 4.123928 32.424895 -3.020363
2011-10-10 09:46:54 51°16.313 2°54.429 16.0564 4.121751 32.405132 -3.020363
2011-10-10 09:47:54 51°16.367 2°54.455 16.049 4.122062 32.398558 -3.020363
2011-10-10 09:48:54 51°16.393 2°54.428 16.0469 4.117916 32.368168 -3.020363
2011-10-10 09:49:57 51°16.417 2°54.46 16.0439 4.121129 32.399011 -3.020363
2011-10-10 09:50:57 51°16.451 2°54.473 16.0374 4.119263 32.38198 -3.020363
2011-10-10 09:51:55 51°16.467 2°54.43 16.0128 4.117501 32.37914 -3.020363
2011-10-10 09:52:54 51°16.446 2°54.327 16.0094 4.109831 32.321791 -3.020363
2011-10-10 09:53:54 51°16.404 2°54.159 16.0147 4.11688 32.386308 -3.020363
2011-10-10 09:54:54 51°16.359 2°53.96 16.0102 4.105374 32.282021 -3.020363
2011-10-10 09:55:54 51°16.292 2°53.766 16.0098 4.100606 32.244827 -3.020363
2011-10-10 09:56:54 51°16.211 2°53.59 16.0338 4.103197 32.262926 -3.020363
2011-10-10 09:57:54 51°16.125 2°53.433 16.056 4.112111 32.320575 -3.020363
2011-10-10 09:58:54 51°16.031 2°53.293 16.0633 4.095941 32.164305 -3.020363
2011-10-10 09:59:54 51°15.906 2°53.293 16.0504 4.100812 32.203024 -3.020363
2011-10-10 10:00:54 51°15.798 2°53.485 16.0158 4.097185 32.182457 -3.020363
2011-10-10 10:01:54 51°15.684 2°53.679 15.9702 4.084021 32.098729 -3.020363
2011-10-10 10:02:54 51°15.566 2°53.86 15.9451 4.0834 32.12955 -3.020363
2011-10-10 10:03:54 51°15.45 2°54.042 15.9496 4.080291 32.10886 -3.020363
2011-10-10 10:04:54 51°15.335 2°54.226 15.8892 4.083297 32.141191 -3.020363
2011-10-10 10:05:54 51°15.209 2°54.399 15.7299 4.073658 32.129254 -3.020363
2011-10-10 10:06:55 51°15.058 2°54.543 15.7234 4.057906 32.099263 -3.020363
2011-10-10 10:07:54 51°14.909 2°54.713 15.8375 4.051168 32.004738 -3.020363
2011-10-10 10:08:54 51°14.754 2°54.891 15.5496 4.055728 31.998623 -3.020363
2011-10-10 10:09:54 51°14.592 2°55.037 15.3275 4.017281 31.916264 -3.020363
2011-10-10 10:10:54 51°14.42 2°55.135 15.4247 3.971271 31.648897 -3.020363
2011-10-10 10:11:55 51°14.27 2°55.293 15.4615 3.705642 29.225821 -3.020363
2011-10-10 10:12:54 51°14.159 2°55.401 15.5135 3.522355 27.596288 -3.020363
2011-10-10 10:13:54 51°14.05 2°55.48 15.5388 3.275907 25.443288 -3.020363
2011-10-10 10:14:54 51°13.949 2°55.549 15.7841 0.09083 0.550273 -3.020363
2011-10-10 10:15:54 51°13.853 2°55.617 15.8944 0.071191 0.427224 -3.020363
2011-10-10 10:16:54 51°13.773 2°55.686 15.9782 0.061732 0.368343 -3.020363
2011-10-10 10:17:54 51°13.722 2°55.778 16.0904 0.057002 0.338922 -3.020363
2011-10-10 10:18:54 51°13.689 2°55.873 16.2614 0.053712 0.318451 -3.020363
2011-10-10 10:19:54 51°13.685 2°55.899 16.3611 0.049908 0.294953 -3.020363